Meiserville, Pennsylvania
Current Conditions -  °F | °C
As of 6:53 PM on Friday 28 Nov 2014 (Local Time) from KSEG Reporting Station
Clear Clear  
Wind Chill: 22°   Ceiling: Unl
Heat Index: 27°   Visibility: 10mi
Dew Point: 15°   Wind: 5mph
Humidity: 61%   Direction: 230°SW
Pressure: 30.26"   Gusts: NA
Location:  40.6989°N, 77.0073°W
Report Text: KSEG 282353Z AUTO 23004KT 10SM CLR M03/M09 A3026 RMK AO2 SLP254 T10281094 10006 21039 53013
Loading
Personal Weather Stations






























Interactive Weather Map New forecast layout! Learn more

10-Day Weather Forecast

Advertisements
Track Severe Weather on mobile